createdAt,value
2023-04-26T00:00:00.094Z,100503.66
2023-04-26T00:02:30.111Z,100504.00
2023-04-26T00:04:58.867Z,100502.84
2023-04-26T00:07:25.951Z,100511.25
2023-04-26T00:14:16.004Z,100507.75
2023-04-26T00:16:42.829Z,100516.38
2023-04-26T00:19:10.368Z,100519.38
2023-04-26T00:21:37.203Z,100522.47
2023-04-26T00:24:05.608Z,100523.22
2023-04-26T00:26:34.391Z,100518.41
2023-04-26T00:29:04.286Z,100530.09
2023-04-26T00:31:31.357Z,100530.78
2023-04-26T00:33:58.101Z,100518.63
2023-04-26T00:36:24.756Z,100522.34
2023-04-26T00:38:56.157Z,100522.88
2023-04-26T00:41:22.913Z,100526.38
2023-04-26T00:43:49.810Z,100524.03
2023-04-26T00:46:18.587Z,100519.56
2023-04-26T00:48:48.178Z,100522.94
2023-04-26T00:51:16.086Z,100523.47
2023-04-26T00:53:43.445Z,100528.22
2023-04-26T00:56:12.448Z,100521.66
2023-04-26T00:58:41.885Z,100528.34
2023-04-26T01:01:08.626Z,100538.72
2023-04-26T01:03:35.534Z,100534.78
2023-04-26T01:06:02.780Z,100536.22
2023-04-26T01:08:32.541Z,100527.03
2023-04-26T01:10:59.582Z,100533.03
2023-04-26T01:13:27.284Z,100526.47
2023-04-26T01:15:58.950Z,100534.59
2023-04-26T01:18:30.001Z,100527.00
2023-04-26T01:21:00.930Z,100524.94
2023-04-26T01:23:34.604Z,100540.50
2023-04-26T01:26:01.330Z,100533.69
2023-04-26T01:28:28.055Z,100541.06
2023-04-26T01:30:57.559Z,100539.78
2023-04-26T01:33:24.295Z,100541.69
2023-04-26T01:35:50.928Z,100536.69
2023-04-26T01:38:20.509Z,100537.81
2023-04-26T01:40:47.255Z,100538.59
2023-04-26T01:43:15.521Z,100544.88
2023-04-26T01:45:48.150Z,100542.91
2023-04-26T01:48:14.977Z,100545.78
2023-04-26T01:50:47.423Z,100537.13
2023-04-26T01:53:14.266Z,100536.69
2023-04-26T01:55:46.860Z,100533.56
2023-04-26T01:58:13.746Z,100544.09
2023-04-26T02:00:43.224Z,100545.16
2023-04-26T02:03:09.909Z,100546.50
2023-04-26T02:05:36.660Z,100551.81
2023-04-26T02:08:03.700Z,100553.13
2023-04-26T02:10:32.463Z,100558.06
2023-04-26T02:12:59.125Z,100550.72
2023-04-26T02:15:28.647Z,100553.75
2023-04-26T02:17:55.867Z,100550.84
2023-04-26T02:20:22.845Z,100548.44
2023-04-26T02:22:49.459Z,100552.09
2023-04-26T02:25:16.651Z,100550.72
2023-04-26T02:27:46.489Z,100549.47
2023-04-26T02:30:13.514Z,100547.13
2023-04-26T02:32:43.347Z,100557.69
2023-04-26T02:35:10.687Z,100559.72
2023-04-26T02:37:37.525Z,100554.22
2023-04-26T02:40:08.682Z,100567.53
2023-04-26T02:42:35.447Z,100560.91
2023-04-26T02:45:04.541Z,100563.25
2023-04-26T02:47:35.745Z,100552.91
2023-04-26T02:50:04.192Z,100570.97
2023-04-26T02:52:31.099Z,100574.22
2023-04-26T02:54:57.865Z,100566.84
2023-04-26T02:57:26.102Z,100572.38
2023-04-26T02:59:55.743Z,100568.00
2023-04-26T03:02:22.524Z,100559.56
2023-04-26T03:04:49.893Z,100556.81
2023-04-26T03:07:18.853Z,100557.56
2023-04-26T03:09:48.553Z,100555.44
2023-04-26T03:12:15.604Z,100556.59
2023-04-26T03:14:42.394Z,100556.50
2023-04-26T03:17:11.230Z,100565.63
2023-04-26T03:19:38.226Z,100557.84
2023-04-26T03:22:05.833Z,100560.59
2023-04-26T03:24:35.330Z,100563.84
2023-04-26T03:27:04.893Z,100559.97
2023-04-26T03:29:31.573Z,100568.69
2023-04-26T03:31:58.257Z,100567.94
2023-04-26T03:34:28.005Z,100568.53
2023-04-26T03:36:57.861Z,100565.88
2023-04-26T03:39:32.623Z,100567.94
2023-04-26T03:42:00.392Z,100570.91
2023-04-26T03:44:28.298Z,100558.00
2023-04-26T03:46:56.402Z,100556.97
2023-04-26T03:49:23.023Z,100558.97
2023-04-26T03:51:49.627Z,100559.16
2023-04-26T03:54:16.581Z,100562.66
2023-04-26T03:56:43.242Z,100557.34
2023-04-26T03:59:11.867Z,100561.22
2023-04-26T04:01:38.602Z,100563.03
2023-04-26T04:04:05.840Z,100569.78
2023-04-26T04:06:32.969Z,100568.56
2023-04-26T04:08:59.741Z,100570.25
2023-04-26T04:11:29.503Z,100577.28
2023-04-26T04:13:56.354Z,100572.03
2023-04-26T04:16:23.349Z,100575.28
2023-04-26T04:18:59.473Z,100578.50
2023-04-26T04:21:32.329Z,100579.16
2023-04-26T04:23:59.170Z,100581.81
2023-04-26T04:26:28.456Z,100589.22
2023-04-26T04:29:00.554Z,100595.16
2023-04-26T04:31:30.510Z,100591.75
2023-04-26T04:33:57.188Z,100587.94
2023-04-26T04:36:23.882Z,100592.09
2023-04-26T04:38:52.198Z,100583.94
2023-04-26T04:41:22.366Z,100584.16
2023-04-26T04:43:49.208Z,100597.72
2023-04-26T04:48:59.716Z,100596.72
2023-04-26T05:49:02.199Z,100612.34
2023-04-26T06:40:14.057Z,100634.19
2023-04-26T06:42:44.644Z,100642.88
2023-04-26T06:45:12.708Z,100644.69
2023-04-26T06:47:42.571Z,100657.00
2023-04-26T06:50:13.005Z,100652.75
2023-04-26T06:52:45.816Z,100652.25
2023-04-26T06:55:12.728Z,100660.75
2023-04-26T06:57:42.980Z,100644.03
2023-04-26T07:00:14.010Z,100645.81
2023-04-26T07:02:43.696Z,100645.22
2023-04-26T07:05:10.669Z,100646.91
2023-04-26T07:07:37.505Z,100639.44
2023-04-26T07:10:04.798Z,100642.47
2023-04-26T07:12:31.567Z,100642.84
2023-04-26T07:14:58.317Z,100651.50
2023-04-26T07:17:25.031Z,100653.44
2023-04-26T07:19:52.211Z,100656.03
2023-04-26T07:22:19.713Z,100642.81
2023-04-26T07:24:46.453Z,100646.28
2023-04-26T07:27:16.044Z,100658.19
2023-04-26T07:29:42.744Z,100650.72
2023-04-26T07:32:09.523Z,100655.59
2023-04-26T07:34:37.572Z,100655.72
2023-04-26T07:37:04.619Z,100655.72
2023-04-26T07:39:31.393Z,100657.44
2023-04-26T07:41:58.156Z,100671.91
2023-04-26T07:44:24.912Z,100668.66
2023-04-26T07:46:51.617Z,100682.47
2023-04-26T07:49:21.364Z,100663.78
2023-04-26T07:51:51.555Z,100677.44
2023-04-26T07:54:18.515Z,100660.38
2023-04-26T07:56:45.441Z,100666.81
2023-04-26T07:59:12.251Z,100665.84
2023-04-26T08:01:47.121Z,100668.56
2023-04-26T08:04:14.237Z,100683.84
2023-04-26T08:06:45.131Z,100675.94
2023-04-26T08:09:11.936Z,100679.47
2023-04-26T08:11:44.657Z,100683.41
2023-04-26T08:14:11.695Z,100687.13
2023-04-26T08:16:38.913Z,100678.91
2023-04-26T08:19:08.206Z,100678.78
2023-04-26T08:21:35.034Z,100676.13
2023-04-26T08:24:01.745Z,100677.84
2023-04-26T08:26:28.372Z,100682.00
2023-04-26T08:28:55.681Z,100689.97
2023-04-26T08:31:23.056Z,100685.91
2023-04-26T08:33:49.936Z,100692.59
2023-04-26T08:36:16.910Z,100702.97
2023-04-26T08:38:43.787Z,100697.94
2023-04-26T08:41:15.071Z,100693.28
2023-04-26T08:43:43.110Z,100692.59
2023-04-26T08:46:19.647Z,100691.25
2023-04-26T08:49:13.539Z,100697.47
2023-04-26T08:51:44.376Z,100687.69
2023-04-26T08:54:12.533Z,100697.59
2023-04-26T08:56:48.813Z,100703.16
2023-04-26T08:59:15.973Z,100705.75
2023-04-26T09:01:48.292Z,100699.72
2023-04-26T09:04:16.133Z,100703.78
2023-04-26T09:06:48.612Z,100708.63
2023-04-26T09:09:22.753Z,100696.44
2023-04-26T09:12:01.637Z,100709.22
2023-04-26T09:14:28.618Z,100708.44
2023-04-26T09:16:55.922Z,100703.44
2023-04-26T09:19:45.035Z,100709.53
2023-04-26T09:22:11.960Z,100701.03
2023-04-26T09:24:52.185Z,100706.94
2023-04-26T09:27:23.460Z,100707.78
2023-04-26T09:30:09.647Z,100710.69
2023-04-26T09:33:03.405Z,100714.22
2023-04-26T09:35:47.582Z,100703.97
2023-04-26T09:38:18.714Z,100704.94
2023-04-26T09:40:50.864Z,100704.25
2023-04-26T09:43:22.727Z,100712.31
2023-04-26T09:45:58.978Z,100712.13
2023-04-26T09:48:34.563Z,100708.47
2023-04-26T09:51:04.144Z,100717.44
2023-04-26T09:53:49.241Z,100702.19
2023-04-26T09:56:23.027Z,100692.06
2023-04-26T09:59:05.231Z,100718.41
2023-04-26T10:01:34.850Z,100706.44
2023-04-26T10:04:02.349Z,100707.56
2023-04-26T10:06:29.557Z,100715.97
2023-04-26T10:09:01.285Z,100723.88
2023-04-26T10:11:32.018Z,100727.38
2023-04-26T10:13:59.386Z,100719.59
2023-04-26T10:16:27.398Z,100747.69
2023-04-26T10:18:57.090Z,100761.84
2023-04-26T10:24:18.861Z,100754.66
2023-04-26T10:26:57.247Z,100755.78
2023-04-26T10:29:27.919Z,100759.94
2023-04-26T10:32:21.733Z,100762.13
2023-04-26T10:35:16.451Z,100750.97
2023-04-26T10:38:01.669Z,100750.22
2023-04-26T10:40:42.294Z,100742.44
2023-04-26T10:43:08.895Z,100741.38
2023-04-26T10:45:38.082Z,100745.13
2023-04-26T10:48:30.610Z,100737.22
2023-04-26T10:51:05.447Z,100735.22
2023-04-26T10:53:56.577Z,100732.78
2023-04-26T10:56:23.478Z,100726.25
2023-04-26T10:59:28.365Z,100724.88
2023-04-26T11:02:01.126Z,100726.88
2023-04-26T11:05:02.993Z,100744.69
2023-04-26T11:07:41.449Z,100724.72
2023-04-26T11:10:22.588Z,100735.03
2023-04-26T11:13:03.272Z,100733.16
2023-04-26T11:15:32.059Z,100748.72
2023-04-26T11:18:04.875Z,100751.84
2023-04-26T11:20:35.190Z,100746.59
2023-04-26T11:23:03.800Z,100737.22
2023-04-26T11:25:33.078Z,100734.66
2023-04-26T11:28:02.537Z,100734.47
2023-04-26T11:30:36.642Z,100730.00
2023-04-26T11:33:06.232Z,100726.06
2023-04-26T11:35:43.115Z,100733.19
2023-04-26T11:38:13.212Z,100719.13
2023-04-26T11:40:43.084Z,100734.69
2023-04-26T11:43:15.845Z,100730.06
2023-04-26T11:45:51.146Z,100731.50
2023-04-26T11:48:18.167Z,100748.84
2023-04-26T11:50:49.392Z,100749.28
2023-04-26T11:53:21.544Z,100759.97
2023-04-26T11:55:58.200Z,100781.28
2023-04-26T11:58:24.893Z,100786.94
2023-04-26T12:01:02.360Z,100785.22
2023-04-26T12:03:37.978Z,100785.34
2023-04-26T12:06:06.337Z,100777.78
2023-04-26T12:08:34.024Z,100774.19
2023-04-26T12:11:03.325Z,100772.19
2023-04-26T12:13:30.717Z,100772.84
2023-04-26T12:15:57.603Z,100778.53
2023-04-26T12:18:32.845Z,100770.28
2023-04-26T12:21:01.862Z,100787.53
2023-04-26T12:23:43.116Z,100786.66
2023-04-26T12:26:12.090Z,100779.78
2023-04-26T12:28:42.389Z,100772.63
2023-04-26T12:31:09.410Z,100770.91
2023-04-26T12:33:36.987Z,100776.19
2023-04-26T12:36:12.696Z,100778.00
2023-04-26T12:38:43.177Z,100768.63
2023-04-26T12:41:09.999Z,100761.38
2023-04-26T12:43:36.867Z,100761.56
2023-04-26T12:46:04.299Z,100765.53
2023-04-26T12:48:34.009Z,100765.13
2023-04-26T12:51:00.912Z,100770.28
2023-04-26T12:53:27.823Z,100763.59
2023-04-26T12:55:57.561Z,100766.19
2023-04-26T12:58:25.402Z,100782.25
2023-04-26T13:00:55.142Z,100789.63
2023-04-26T13:03:22.026Z,100797.84
2023-04-26T13:05:57.073Z,100807.13
2023-04-26T13:08:24.449Z,100815.16
2023-04-26T13:10:54.377Z,100802.63
2023-04-26T13:13:26.332Z,100806.38
2023-04-26T13:16:00.547Z,100816.28
2023-04-26T13:18:31.044Z,100812.16
2023-04-26T13:20:57.880Z,100812.44
2023-04-26T13:23:27.196Z,100811.31
2023-04-26T13:26:00.642Z,100805.63
2023-04-26T13:28:27.421Z,100809.44
2023-04-26T13:30:57.182Z,100810.44
2023-04-26T13:33:23.982Z,100818.09
2023-04-26T13:35:56.751Z,100812.59
2023-04-26T13:38:23.658Z,100816.31
2023-04-26T13:41:00.099Z,100810.06
2023-04-26T13:43:29.379Z,100817.53
2023-04-26T13:46:00.020Z,100815.34
2023-04-26T13:48:30.829Z,100816.28
2023-04-26T13:50:58.913Z,100805.22
2023-04-26T13:53:26.156Z,100804.34
2023-04-26T13:55:56.539Z,100804.19
2023-04-26T13:58:23.425Z,100814.09
2023-04-26T14:00:53.401Z,100807.47
2023-04-26T14:03:20.252Z,100812.63
2023-04-26T14:05:47.324Z,100814.44
2023-04-26T14:08:16.872Z,100817.00
2023-04-26T14:10:46.900Z,100829.88
2023-04-26T14:13:15.990Z,100836.09
2023-04-26T14:15:42.913Z,100827.03
2023-04-26T14:18:15.273Z,100829.47
2023-04-26T14:20:42.387Z,100834.13
2023-04-26T14:23:09.118Z,100827.59
2023-04-26T14:25:35.856Z,100817.81
2023-04-26T14:28:03.425Z,100819.63
2023-04-26T14:30:30.142Z,100810.88
2023-04-26T14:33:04.424Z,100808.59
2023-04-26T14:35:31.178Z,100808.91
2023-04-26T14:46:08.808Z,100817.25
2023-04-26T14:48:35.918Z,100816.22
2023-04-26T15:04:37.968Z,100840.00
2023-04-26T15:07:04.851Z,100846.63
2023-04-26T15:09:31.745Z,100841.16
2023-04-26T15:11:58.447Z,100844.28
2023-04-26T15:14:25.269Z,100855.84
2023-04-26T15:16:54.981Z,100859.78
2023-04-26T15:19:21.891Z,100850.19
2023-04-26T15:21:49.405Z,100857.22
2023-04-26T15:24:16.200Z,100856.38
2023-04-26T15:26:42.920Z,100858.16
2023-04-26T15:29:09.643Z,100857.56
2023-04-26T15:31:36.910Z,100856.34
2023-04-26T15:34:03.816Z,100854.28
2023-04-26T15:36:30.658Z,100854.81
2023-04-26T15:38:57.638Z,100847.63
2023-04-26T15:41:24.413Z,100854.66
2023-04-26T15:43:57.428Z,100836.56
2023-04-26T15:46:24.984Z,100838.72
2023-04-26T15:48:59.205Z,100838.38
2023-04-26T15:51:26.440Z,100842.00
2023-04-26T15:53:55.536Z,100842.94
2023-04-26T15:56:26.087Z,100847.91
2023-04-26T15:58:59.978Z,100848.31
2023-04-26T16:01:29.098Z,100835.03
2023-04-26T16:04:03.534Z,100839.91
2023-04-26T16:06:33.690Z,100846.97
2023-04-26T16:09:02.235Z,100842.06
2023-04-26T16:11:29.175Z,100840.38
2023-04-26T16:14:00.919Z,100853.50
2023-04-26T16:16:27.954Z,100852.31
2023-04-26T16:18:57.895Z,100846.34
2023-04-26T16:21:24.993Z,100853.59
2023-04-26T16:23:51.924Z,100852.09
2023-04-26T16:26:19.130Z,100849.44
2023-04-26T16:28:49.975Z,100851.31
2023-04-26T16:31:16.758Z,100863.19
2023-04-26T16:33:43.596Z,100865.22
2023-04-26T16:36:10.938Z,100866.44
2023-04-26T16:38:42.872Z,100873.63
2023-04-26T16:41:11.000Z,100868.78
2023-04-26T16:43:37.854Z,100872.28
2023-04-26T16:46:08.082Z,100876.91
2023-04-26T16:48:41.245Z,100871.22
2023-04-26T16:51:08.159Z,100879.50
2023-04-26T16:53:37.975Z,100872.72
2023-04-26T16:56:08.689Z,100885.94
2023-04-26T16:58:38.292Z,100873.47
2023-04-26T17:01:13.648Z,100879.41
2023-04-26T17:03:43.225Z,100876.06
2023-04-26T17:06:10.697Z,100878.22
2023-04-26T17:08:37.569Z,100872.94
2023-04-26T17:11:10.522Z,100883.56
2023-04-26T17:13:37.956Z,100876.16
2023-04-26T17:16:05.814Z,100875.94
2023-04-26T17:18:32.832Z,100876.56
2023-04-26T17:20:59.650Z,100873.34
2023-04-26T17:23:26.401Z,100872.56
2023-04-26T17:25:55.133Z,100880.72
2023-04-26T17:28:24.998Z,100879.66
2023-04-26T17:30:52.016Z,100887.59
2023-04-26T17:33:19.156Z,100885.50
2023-04-26T17:35:47.172Z,100891.97
2023-04-26T17:38:17.476Z,100887.09
2023-04-26T17:41:03.204Z,100892.25
2023-04-26T17:43:29.923Z,100901.53
2023-04-26T17:45:59.694Z,100893.16
2023-04-26T17:48:26.495Z,100902.28
2023-04-26T17:50:58.488Z,100900.72
2023-04-26T17:53:28.709Z,100903.50
2023-04-26T17:56:01.768Z,100899.50
2023-04-26T17:58:28.533Z,100906.91
2023-04-26T18:00:55.553Z,100912.00
2023-04-26T18:03:22.624Z,100909.72
2023-04-26T18:05:49.956Z,100906.81
2023-04-26T18:08:19.157Z,100907.06
2023-04-26T18:10:50.476Z,100910.00
2023-04-26T18:13:18.112Z,100912.31
2023-04-26T18:15:45.016Z,100907.63
2023-04-26T18:18:14.131Z,100910.78
2023-04-26T18:20:44.029Z,100917.94
2023-04-26T18:23:10.786Z,100917.44
2023-04-26T18:25:37.481Z,100918.38
2023-04-26T18:28:04.757Z,100922.13
2023-04-26T18:30:31.616Z,100928.09
2023-04-26T18:33:01.050Z,100933.25
2023-04-26T18:35:27.784Z,100928.84
2023-04-26T18:37:54.613Z,100931.72
2023-04-26T18:40:21.641Z,100927.16
2023-04-26T18:42:48.329Z,100927.19
2023-04-26T18:45:17.951Z,100933.31
2023-04-26T18:47:44.600Z,100932.91
2023-04-26T18:50:11.404Z,100932.16
2023-04-26T18:52:41.952Z,100937.50
2023-04-26T18:55:11.905Z,100925.84
2023-04-26T18:57:44.796Z,100931.63
2023-04-26T19:00:21.357Z,100930.53
2023-04-26T19:02:48.581Z,100940.25
2023-04-26T19:05:17.708Z,100942.50
2023-04-26T19:07:45.572Z,100942.75
2023-04-26T19:10:14.937Z,100938.81
2023-04-26T19:12:41.686Z,100946.50
2023-04-26T19:15:08.929Z,100938.41
2023-04-26T19:17:35.611Z,100948.34
2023-04-26T19:20:02.612Z,100951.69
2023-04-26T19:22:32.263Z,100951.81
2023-04-26T19:25:00.135Z,100953.81
2023-04-26T19:27:27.276Z,100956.16
2023-04-26T19:29:58.297Z,100960.56
2023-04-26T19:32:28.219Z,100970.72
2023-04-26T19:35:02.323Z,100962.28
2023-04-26T19:37:33.164Z,100967.28
2023-04-26T19:40:01.916Z,100964.72
2023-04-26T19:42:28.634Z,100963.34
2023-04-26T20:01:24.405Z,100964.19
2023-04-26T20:42:04.954Z,100989.78
2023-04-26T21:19:43.578Z,100999.97
2023-04-26T21:22:10.602Z,101000.94
2023-04-26T22:43:02.126Z,101018.31
2023-04-26T23:15:14.420Z,101031.59
2023-04-26T23:17:47.086Z,101038.66
2023-04-26T23:20:13.897Z,101035.91
2023-04-26T23:22:44.683Z,101028.09
2023-04-26T23:25:11.583Z,101031.00
2023-04-26T23:27:39.113Z,101034.69
2023-04-26T23:30:09.076Z,101042.59
2023-04-26T23:32:35.826Z,101026.78
2023-04-26T23:35:03.090Z,101037.34
2023-04-26T23:37:29.956Z,101039.03
2023-04-26T23:39:56.796Z,101038.97
2023-04-26T23:42:23.736Z,101033.06
2023-04-26T23:44:50.487Z,101043.38
2023-04-26T23:47:17.358Z,101048.69
2023-04-26T23:49:44.241Z,101045.06
2023-04-26T23:52:11.596Z,101043.38
2023-04-26T23:54:38.553Z,101043.38
2023-04-26T23:57:05.430Z,101045.25
2023-04-26T23:59:34.893Z,101041.88
